Time;durP1;ratioP1;P1;durP2;ratioP2;P2;SDS_P1;SDS_P2;PMS_P1;PMS_P2;Temp;Humidity;BMP_temperature;BMP_pressure;BME280_temperature;BME280_humidity;BME280_pressure;Samples;Min_cycle;Max_cycle;Signal;HPM_P1;HPM_P2
2021/12/09 00:00:16;;;;;;;23.02;10.25;;;;;;;-4.23;71.44;99883.33;1722754;83;25487;-71
2021/12/09 00:02:45;;;;;;;22.65;9.58;;;;;;;-4.24;71.44;99885.17;1722935;83;25869;-71
2021/12/09 00:05:15;;;;;;;23.35;10.82;;;;;;;-4.24;71.50;99883.86;1722634;83;25776;-71
2021/12/09 00:07:44;;;;;;;21.35;10.28;;;;;;;-4.27;71.48;99881.65;1722585;83;25702;-70
2021/12/09 00:10:13;;;;;;;25.25;10.48;;;;;;;-4.27;71.65;99892.70;1722764;83;25440;-70
2021/12/09 00:12:41;;;;;;;22.30;9.68;;;;;;;-4.27;71.82;99886.93;1722691;83;25610;-70
2021/12/09 00:15:09;;;;;;;19.07;9.63;;;;;;;-4.27;71.64;99896.17;1722599;83;27428;-71
2021/12/09 00:17:36;;;;;;;25.15;10.98;;;;;;;-4.26;71.96;99896.97;1722711;83;25445;-72
2021/12/09 00:20:05;;;;;;;20.32;10.68;;;;;;;-4.21;72.15;99903.72;1722705;83;25639;-72
2021/12/09 00:22:32;;;;;;;21.75;11.05;;;;;;;-4.20;72.08;99894.78;1697884;83;25723;-70
2021/12/09 00:24:58;;;;;;;22.62;10.53;;;;;;;-4.22;71.90;99902.92;1722725;83;25602;-72
2021/12/09 00:27:25;;;;;;;25.55;12.13;;;;;;;-4.27;71.82;99900.14;1722792;83;27932;-71
2021/12/09 00:29:52;;;;;;;22.10;10.78;;;;;;;-4.30;72.08;99903.21;1722487;83;25726;-71
2021/12/09 00:32:19;;;;;;;21.77;11.80;;;;;;;-4.32;72.09;99906.59;1722643;83;25636;-71
2021/12/09 00:34:48;;;;;;;24.72;10.55;;;;;;;-4.33;72.26;99907.08;1722706;83;25675;-71
2021/12/09 00:37:28;;;;;;;23.55;10.50;;;;;;;-4.27;72.36;99908.55;1722534;83;25646;-72
2021/12/09 00:39:52;;;;;;;22.55;10.82;;;;;;;-4.26;72.43;99908.33;1721699;83;28020;-71
2021/12/09 00:42:22;;;;;;;24.27;11.55;;;;;;;-4.28;72.25;99910.39;1723248;82;25384;-71
2021/12/09 00:44:49;;;;;;;23.83;11.43;;;;;;;-4.29;72.17;99918.05;1726451;83;26144;-71
2021/12/09 00:47:16;;;;;;;23.07;11.20;;;;;;;-4.34;72.25;99906.81;1726623;83;25764;-71
2021/12/09 00:49:44;;;;;;;24.67;11.38;;;;;;;-4.28;72.47;99913.56;1726677;83;25550;-71
2021/12/09 00:52:11;;;;;;;24.82;12.25;;;;;;;-4.30;72.41;99908.49;1726414;83;27902;-71
2021/12/09 00:54:41;;;;;;;29.23;11.73;;;;;;;-4.30;72.41;99914.30;1721850;83;25739;-71
2021/12/09 00:57:07;;;;;;;21.73;11.57;;;;;;;-4.29;72.44;99907.48;1726786;83;25395;-71
2021/12/09 00:59:34;;;;;;;23.47;11.38;;;;;;;-4.29;72.56;99903.52;1726493;83;25688;-71
2021/12/09 01:02:01;;;;;;;24.70;11.38;;;;;;;-4.24;72.70;99907.63;1697584;83;25666;-71
2021/12/09 01:04:28;;;;;;;29.52;11.68;;;;;;;-4.20;72.68;99910.63;1726660;83;27329;-71
2021/12/09 01:06:54;;;;;;;26.60;12.23;;;;;;;-4.22;72.37;99910.84;1726371;83;26181;-71
2021/12/09 01:09:21;;;;;;;24.12;11.60;;;;;;;-4.24;72.40;99910.27;1726671;83;25479;-71
2021/12/09 01:11:48;;;;;;;26.25;13.18;;;;;;;-4.26;72.24;99901.73;1726532;83;25634;-71
2021/12/09 01:14:14;;;;;;;25.25;12.55;;;;;;;-4.24;72.56;99910.27;1726465;83;25705;-71
2021/12/09 01:16:41;;;;;;;28.77;10.93;;;;;;;-4.20;72.50;99914.59;1726578;83;27322;-72
2021/12/09 01:19:08;;;;;;;31.00;13.85;;;;;;;-4.22;72.48;99911.34;1697641;83;25534;-72
2021/12/09 01:21:34;;;;;;;26.90;12.30;;;;;;;-4.27;72.45;99914.66;1726583;83;25731;-72
2021/12/09 01:24:01;;;;;;;29.35;12.00;;;;;;;-4.33;72.37;99921.61;1726487;83;25710;-72
2021/12/09 01:26:29;;;;;;;27.13;12.07;;;;;;;-4.36;72.67;99915.47;1726703;83;25698;-72
2021/12/09 01:29:04;;;;;;;29.52;13.65;;;;;;;-4.35;72.88;99921.03;1726469;83;27315;-72
2021/12/09 01:31:32;;;;;;;33.88;13.30;;;;;;;-4.39;72.86;99917.22;1725895;83;25638;-72
2021/12/09 01:34:01;;;;;;;30.77;13.60;;;;;;;-4.40;73.01;99921.40;1725999;83;25665;-72
2021/12/09 01:36:24;;;;;;;29.70;13.68;;;;;;;-4.45;73.18;99915.97;1725956;83;26301;-72
2021/12/09 01:38:50;;;;;;;32.80;14.18;;;;;;;-4.45;73.28;99919.41;1726650;83;25614;-72
2021/12/09 01:41:17;;;;;;;32.00;15.25;;;;;;;-4.46;73.47;99921.77;1726744;83;27893;-72
2021/12/09 01:43:45;;;;;;;27.98;12.75;;;;;;;-4.47;73.44;99921.98;1723975;83;25931;-72
2021/12/09 01:46:15;;;;;;;30.88;12.60;;;;;;;-4.47;73.54;99912.75;1722702;83;25672;-72
2021/12/09 01:48:46;;;;;;;30.40;13.40;;;;;;;-4.51;73.57;99907.10;1722704;83;25795;-71
2021/12/09 01:51:13;;;;;;;32.48;14.70;;;;;;;-4.54;73.60;99907.02;1722656;83;25444;-69
2021/12/09 01:53:40;;;;;;;33.02;14.30;;;;;;;-4.53;73.79;99902.53;1722696;82;27313;-71
2021/12/09 01:56:12;;;;;;;30.27;13.20;;;;;;;-4.52;73.88;99900.99;1722581;83;25463;-71
2021/12/09 01:58:39;;;;;;;33.35;15.40;;;;;;;-4.49;74.11;99891.84;1722672;82;25411;-71
2021/12/09 02:01:07;;;;;;;31.20;13.83;;;;;;;-4.42;74.30;99896.53;1697761;83;26448;-72
2021/12/09 02:03:35;;;;;;;28.30;14.25;;;;;;;-4.40;74.25;99895.80;1722770;83;25621;-71
2021/12/09 02:06:03;;;;;;;36.80;13.62;;;;;;;-4.37;74.34;99894.04;1722553;83;27343;-71
2021/12/09 02:08:30;;;;;;;28.40;12.68;;;;;;;-4.39;74.32;99881.58;1722564;83;25379;-71
2021/12/09 02:10:56;;;;;;;28.23;13.68;;;;;;;-4.37;74.13;99891.40;1722715;83;25712;-71
2021/12/09 02:13:23;;;;;;;28.45;13.43;;;;;;;-4.39;74.02;99886.86;1722452;83;25659;-71
2021/12/09 02:15:54;;;;;;;31.10;13.68;;;;;;;-4.44;74.19;99883.24;1722753;83;25420;-71
2021/12/09 02:18:20;;;;;;;28.60;13.22;;;;;;;-4.45;74.29;99881.13;1722600;83;27580;-71
2021/12/09 02:21:08;;;;;;;30.88;15.18;;;;;;;-4.43;74.48;99880.91;1722525;83;25802;-71
2021/12/09 02:23:36;;;;;;;27.82;13.10;;;;;;;-4.34;74.80;99882.25;1722694;83;25400;-70
2021/12/09 02:26:04;;;;;;;33.50;14.28;;;;;;;-4.33;74.42;99881.20;1722751;83;25705;-71
2021/12/09 02:28:31;;;;;;;29.40;12.68;;;;;;;-4.34;74.54;99884.36;1722559;83;25595;-71
2021/12/09 02:30:58;;;;;;;33.75;14.03;;;;;;;-4.33;74.57;99877.23;1722701;82;27338;-71
2021/12/09 02:33:24;;;;;;;26.60;12.98;;;;;;;-4.38;74.43;99873.13;1722533;83;25724;-71
2021/12/09 02:35:51;;;;;;;27.73;12.58;;;;;;;-4.38;74.49;99876.57;1722556;83;25889;-71
2021/12/09 02:38:17;;;;;;;26.50;12.23;;;;;;;-4.39;74.63;99877.62;1722624;82;25451;-71
2021/12/09 02:40:44;;;;;;;26.27;12.65;;;;;;;-4.40;74.65;99880.47;1722741;83;25461;-71
2021/12/09 02:43:11;;;;;;;29.23;14.10;;;;;;;-4.45;74.60;99872.41;1722378;83;27905;-71
2021/12/09 02:45:40;;;;;;;25.17;12.53;;;;;;;-4.45;74.88;99873.20;1722598;83;25665;-71
2021/12/09 02:48:07;;;;;;;29.42;12.33;;;;;;;-4.44;75.01;99876.64;1722826;83;25636;-71
2021/12/09 02:50:33;;;;;;;25.57;12.82;;;;;;;-4.41;74.96;99876.20;1722606;83;25684;-72
2021/12/09 02:53:00;;;;;;;24.95;12.05;;;;;;;-4.45;74.96;99870.56;1722593;83;25215;-70
2021/12/09 02:55:26;;;;;;;25.25;11.38;;;;;;;-4.45;74.99;99868.45;1722846;83;27420;-71
2021/12/09 02:57:54;;;;;;;29.48;12.82;;;;;;;-4.50;74.96;99858.02;1722594;83;25609;-71
2021/12/09 03:00:21;;;;;;;26.02;11.63;;;;;;;-4.45;75.38;99858.69;1722860;83;25414;-71
2021/12/09 03:02:48;;;;;;;27.60;12.70;;;;;;;-4.42;75.26;99861.41;1722737;83;25747;-71
2021/12/09 03:05:15;;;;;;;26.42;12.20;;;;;;;-4.45;75.20;99854.72;1722784;83;25618;-71
2021/12/09 03:07:42;;;;;;;23.38;11.68;;;;;;;-4.44;75.33;99858.16;1722823;83;27339;-71
2021/12/09 03:10:20;;;;;;;27.15;11.75;;;;;;;-4.41;75.50;99850.63;1722700;82;25617;-71
2021/12/09 03:12:49;;;;;;;27.50;12.78;;;;;;;-4.41;75.36;99856.41;1722530;83;25557;-71
2021/12/09 03:15:17;;;;;;;21.97;11.18;;;;;;;-4.41;75.32;99859.88;1722718;83;25707;-71
2021/12/09 03:17:47;;;;;;;30.57;12.37;;;;;;;-4.41;75.35;99856.41;1722849;83;25751;-71
2021/12/09 03:20:17;;;;;;;21.68;11.40;;;;;;;-4.37;75.47;99854.95;1722706;83;27413;-71
2021/12/09 03:22:47;;;;;;;25.90;12.80;;;;;;;-4.32;75.71;99853.77;1722737;83;25648;-71
2021/12/09 03:25:16;;;;;;;;;;;;;;;-4.26;75.81;99854.19;1725398;83;25661;-71
2021/12/09 03:27:43;;;;;;;22.45;10.20;;;;;;;-4.25;75.48;99850.53;1722859;83;25690;-71
2021/12/09 03:30:14;;;;;;;23.32;10.80;;;;;;;-4.29;75.01;99854.66;1722780;83;25593;-71
2021/12/09 03:32:42;;;;;;;24.25;11.15;;;;;;;-4.36;75.04;99842.03;1722759;83;27382;-71
2021/12/09 03:35:11;;;;;;;20.50;10.58;;;;;;;-4.38;75.17;99842.25;1722587;83;25619;-70
2021/12/09 03:37:39;;;;;;;24.52;12.25;;;;;;;-4.39;75.29;99847.74;1722970;83;25645;-70
2021/12/09 03:40:08;;;;;;;25.97;11.18;;;;;;;-4.34;75.59;99852.67;1697765;83;25705;-70
2021/12/09 03:42:36;;;;;;;23.85;11.03;;;;;;;-4.33;75.32;99850.31;1722294;83;25595;-70
2021/12/09 03:45:05;;;;;;;23.35;11.22;;;;;;;-4.31;75.44;99852.73;1725860;83;27952;-71
2021/12/09 03:47:33;;;;;;;23.73;10.58;;;;;;;-4.34;75.18;99847.92;1726796;83;25605;-71
2021/12/09 03:50:01;;;;;;;18.73;10.10;;;;;;;-4.33;75.25;99848.19;1697688;83;25580;-70
2021/12/09 03:52:28;;;;;;;21.75;11.18;;;;;;;-4.39;75.04;99846.42;1726587;83;25555;-70
2021/12/09 03:54:57;;;;;;;19.77;10.00;;;;;;;-4.41;75.12;99847.16;1726691;83;25703;-71
2021/12/09 03:57:24;;;;;;;25.75;11.12;;;;;;;-4.47;75.01;99844.11;1726709;83;27310;-71
2021/12/09 03:59:53;;;;;;;20.30;10.03;;;;;;;-4.49;75.26;99850.92;1726606;83;25581;-71
2021/12/09 04:02:20;;;;;;;22.70;10.60;;;;;;;-4.48;75.34;99845.92;1697767;83;25688;-71
2021/12/09 04:04:47;;;;;;;20.50;10.03;;;;;;;-4.50;75.32;99850.62;1726582;83;25681;-71
2021/12/09 04:07:14;;;;;;;23.50;10.40;;;;;;;-4.50;75.31;99855.90;1726699;83;25747;-71
2021/12/09 04:09:40;;;;;;;21.50;11.15;;;;;;;-4.52;75.43;99842.91;1726679;83;28276;-71
2021/12/09 04:12:09;;;;;;;20.97;9.85;;;;;;;-4.50;75.54;99852.73;1726362;83;25924;-71
2021/12/09 04:14:36;;;;;;;20.55;10.85;;;;;;;-4.48;75.53;99845.12;1722159;83;25619;-71
2021/12/09 04:17:03;;;;;;;21.48;10.70;;;;;;;-4.49;75.41;99846.96;1726559;83;25733;-71
2021/12/09 04:19:30;;;;;;;21.87;10.23;;;;;;;-4.46;75.61;99841.25;1726741;83;25658;-71
2021/12/09 04:21:56;;;;;;;19.40;9.95;;;;;;;-4.44;75.44;99842.31;1726581;83;27412;-71
2021/12/09 04:24:23;;;;;;;23.67;10.78;;;;;;;-4.50;75.37;99843.50;1726600;83;25572;-71
2021/12/09 04:26:52;;;;;;;21.25;10.28;;;;;;;-4.48;75.47;99845.12;1726522;83;25707;-71
2021/12/09 04:29:19;;;;;;;20.40;9.78;;;;;;;-4.46;75.65;99848.34;1726776;83;25642;-71
2021/12/09 04:31:48;;;;;;;18.35;9.75;;;;;;;-4.45;75.71;99849.97;1726600;83;25646;-72
2021/12/09 04:34:16;;;;;;;19.10;9.65;;;;;;;-4.43;75.64;99838.66;1726702;83;27311;-71
2021/12/09 04:36:43;;;;;;;19.45;10.00;;;;;;;-4.50;75.39;99850.62;1726585;83;25711;-71
2021/12/09 04:39:09;;;;;;;17.23;8.40;;;;;;;-4.55;75.40;99855.23;1721936;83;25483;-71
2021/12/09 04:41:36;;;;;;;18.60;9.38;;;;;;;-4.56;75.59;99854.95;1726534;83;26256;-71
2021/12/09 04:44:04;;;;;;;19.65;9.98;;;;;;;-4.60;75.72;99851.13;1725401;83;25732;-71
2021/12/09 04:46:31;;;;;;;23.70;10.95;;;;;;;-4.63;75.72;99852.91;1722796;83;27948;-71
2021/12/09 04:48:58;;;;;;;19.92;10.95;;;;;;;-4.62;75.80;99866.38;1722544;83;25612;-71
2021/12/09 04:51:24;;;;;;;20.82;10.00;;;;;;;-4.62;75.86;99868.22;1722855;83;25708;-71
2021/12/09 04:53:51;;;;;;;21.77;10.08;;;;;;;-4.62;75.98;99870.34;1722719;83;25577;-71
2021/12/09 04:56:17;;;;;;;22.40;10.70;;;;;;;-4.59;75.94;99882.30;1722703;83;25399;-71
2021/12/09 04:58:44;;;;;;;19.57;9.88;;;;;;;-4.62;76.13;99885.38;1722752;83;27381;-71
2021/12/09 05:01:11;;;;;;;22.17;10.82;;;;;;;-4.58;76.03;99878.63;1722646;83;25625;-71
2021/12/09 05:03:37;;;;;;;20.82;10.95;;;;;;;-4.55;76.12;99885.59;1722646;83;25709;-71
2021/12/09 05:06:04;;;;;;;21.27;10.78;;;;;;;-4.56;76.01;99878.71;1722722;83;26283;-71
2021/12/09 05:08:32;;;;;;;21.42;10.60;;;;;;;-4.56;76.03;99880.03;1722805;83;25453;-71
2021/12/09 05:13:33;;;;;;;23.62;10.45;;;;;;;-4.56;76.08;99876.59;1722626;83;25702;-71
2021/12/09 05:16:01;;;;;;;20.00;10.72;;;;;;;-4.55;76.23;99876.34;1697833;83;25677;-71
2021/12/09 05:18:31;;;;;;;21.80;11.28;;;;;;;-4.54;76.13;99883.25;1722637;83;25693;-71
2021/12/09 05:21:00;;;;;;;21.05;10.32;;;;;;;-4.53;76.28;99878.28;1722826;82;25567;-71
2021/12/09 05:23:27;;;;;;;22.25;11.12;;;;;;;-4.48;76.42;99872.84;1663579;85;27331;-70
2021/12/09 05:25:54;;;;;;;23.70;11.30;;;;;;;-4.49;76.40;99881.28;1634771;87;25760;-70
2021/12/09 05:28:29;;;;;;;18.82;10.35;;;;;;;-4.49;76.28;99889.20;1653444;86;25652;-70
2021/12/09 05:33:31;;;;;;;19.35;10.43;;;;;;;-4.53;76.22;99886.69;1635261;87;25518;-71
2021/12/09 05:35:58;;;;;;;22.65;10.82;;;;;;;-4.53;76.34;99884.05;1632047;87;28002;-71
2021/12/09 05:38:26;;;;;;;20.77;10.60;;;;;;;-4.53;76.38;99892.80;1665502;86;25787;-71
2021/12/09 05:40:53;;;;;;;16.80;9.78;;;;;;;-4.52;76.42;99897.56;1665422;86;25836;-71
2021/12/09 05:43:20;;;;;;;20.68;10.55;;;;;;;-4.54;76.41;99893.02;1635257;87;25763;-71
2021/12/09 05:45:48;;;;;;;23.77;11.80;;;;;;;-4.58;76.43;99883.41;1621876;88;26613;-71
2021/12/09 05:48:16;;;;;;;19.52;10.63;;;;;;;-4.56;76.57;99891.91;1629973;88;28065;-71
2021/12/09 05:50:43;;;;;;;20.75;10.68;;;;;;;-4.55;76.67;99880.30;1630062;88;25670;-71
2021/12/09 05:53:10;;;;;;;26.15;10.80;;;;;;;-4.53;76.69;99883.56;1630043;88;25686;-71
2021/12/09 05:55:38;;;;;;;21.48;11.60;;;;;;;-4.51;76.69;99885.98;1628595;88;26160;-70
2021/12/09 05:58:05;;;;;;;21.42;10.78;;;;;;;-4.48;76.88;99896.60;1677458;85;25811;-70
2021/12/09 06:00:32;;;;;;;25.52;11.75;;;;;;;-4.48;76.76;99893.44;1677497;85;27570;-70
2021/12/09 06:02:58;;;;;;;22.37;11.93;;;;;;;-4.46;76.84;99894.05;1654366;85;25510;-70
2021/12/09 06:05:25;;;;;;;23.10;11.68;;;;;;;-4.42;76.82;99891.78;1677524;85;25775;-69
2021/12/09 06:07:52;;;;;;;23.62;12.20;;;;;;;-4.41;76.77;99889.41;1677360;85;26053;-71
2021/12/09 06:10:18;;;;;;;26.68;12.47;;;;;;;-4.40;76.84;99895.80;1746806;81;25544;-71
2021/12/09 06:12:45;;;;;;;25.25;11.83;;;;;;;-4.37;76.88;99901.96;1760159;81;27324;-71
2021/12/09 06:15:12;;;;;;;20.00;10.65;;;;;;;-4.37;76.80;99891.92;1760108;81;25578;-71
2021/12/09 06:17:38;;;;;;;20.80;10.65;;;;;;;-4.39;76.79;99892.14;1760144;81;25709;-69
2021/12/09 06:20:07;;;;;;;24.12;11.95;;;;;;;-4.38;76.97;99893.73;1760182;81;25719;-69
2021/12/09 06:22:33;;;;;;;25.75;12.45;;;;;;;-4.35;76.98;99888.55;1760337;81;25547;-69
2021/12/09 06:25:00;;;;;;;26.70;13.62;;;;;;;-4.35;76.98;99885.38;1760166;81;27369;-69
2021/12/09 06:27:26;;;;;;;21.62;10.75;;;;;;;-4.33;77.02;99882.52;1760282;81;25759;-69
2021/12/09 06:29:53;;;;;;;27.25;13.72;;;;;;;-4.32;76.94;99883.62;1760156;81;25560;-69
2021/12/09 06:32:20;;;;;;;25.97;12.63;;;;;;;-4.30;77.01;99879.45;1760049;81;25706;-69
2021/12/09 06:34:46;;;;;;;25.92;12.45;;;;;;;-4.32;77.01;99866.98;1760212;81;25524;-69
2021/12/09 06:37:14;;;;;;;73.65;29.18;;;;;;;-4.29;77.09;99875.78;1760301;81;27373;-69
2021/12/09 06:39:41;;;;;;;25.95;11.95;;;;;;;-4.27;77.16;99875.05;1760044;81;25748;-69
2021/12/09 06:42:09;;;;;;;27.75;12.00;;;;;;;-4.26;77.12;99871.36;1760096;81;25650;-70
2021/12/09 06:44:36;;;;;;;29.98;13.48;;;;;;;-4.23;77.10;99877.52;1759751;81;27876;-69
2021/12/09 06:47:04;;;;;;;23.27;12.23;;;;;;;-4.23;76.98;99884.66;1758436;81;25631;-69
2021/12/09 06:49:31;;;;;;;24.23;11.70;;;;;;;-4.23;77.06;99889.41;1758644;81;28026;-69
2021/12/09 06:51:58;;;;;;;24.23;12.73;;;;;;;-4.23;77.15;99882.01;1758402;81;25966;-69
2021/12/09 06:54:25;;;;;;;25.48;12.95;;;;;;;-4.23;77.24;99895.22;1758602;81;25469;-70
2021/12/09 06:56:52;;;;;;;24.85;13.60;;;;;;;-4.18;77.38;99894.04;1758494;81;27725;-69
2021/12/09 06:59:19;;;;;;;23.38;11.35;;;;;;;-4.19;77.21;99892.41;1758757;81;25563;-69
2021/12/09 07:01:49;;;;;;;28.70;13.80;;;;;;;-4.22;77.16;99902.92;1758470;81;27895;-72
2021/12/09 07:04:15;;;;;;;26.10;12.85;;;;;;;-4.21;77.40;99892.63;1758710;81;25609;-69
2021/12/09 07:06:42;;;;;;;26.62;12.93;;;;;;;-4.29;77.39;99871.83;1758661;81;25655;-69
2021/12/09 07:09:08;;;;;;;26.40;12.63;;;;;;;-4.16;77.49;99891.45;1758423;81;26261;-69
2021/12/09 07:11:36;;;;;;;22.15;11.75;;;;;;;-4.16;77.46;99891.98;1758749;81;25409;-69
2021/12/09 07:14:03;;;;;;;27.10;12.35;;;;;;;-4.16;77.43;99888.81;1758544;81;26803;-70
2021/12/09 07:16:31;;;;;;;30.25;13.72;;;;;;;-4.16;77.52;99888.81;1758485;81;27064;-70
2021/12/09 07:18:59;;;;;;;29.67;13.98;;;;;;;-4.15;77.71;99889.12;1758573;81;25990;-69
2021/12/09 07:21:26;;;;;;;30.72;14.60;;;;;;;-4.10;77.75;99896.38;1758701;81;25667;-69
2021/12/09 07:23:53;;;;;;;28.32;13.28;;;;;;;-4.08;77.85;99892.20;1732739;81;25742;-69
2021/12/09 07:26:19;;;;;;;28.55;13.95;;;;;;;-4.04;78.07;99898.12;1757649;81;27293;-69
2021/12/09 07:28:46;;;;;;;27.95;13.20;;;;;;;-4.01;77.92;99904.81;1752310;81;25798;-70
2021/12/09 07:31:16;;;;;;;24.80;12.45;;;;;;;-4.01;78.01;99896.36;1758459;81;25720;-70
2021/12/09 07:33:43;;;;;;;29.20;13.03;;;;;;;-3.99;78.06;99896.14;1758516;81;26606;-69
2021/12/09 07:36:09;;;;;;;25.72;12.40;;;;;;;-3.99;78.02;99896.94;1758548;81;25445;-69
2021/12/09 07:38:36;;;;;;;24.55;13.40;;;;;;;-3.96;78.07;99897.82;1758503;81;27507;-69
2021/12/09 07:41:03;;;;;;;26.62;13.53;;;;;;;-3.94;78.20;99889.67;1758512;81;27118;-69
2021/12/09 07:43:30;;;;;;;25.65;12.98;;;;;;;-3.93;78.18;99883.38;1758719;81;25689;-69
2021/12/09 07:45:58;;;;;;;24.25;12.53;;;;;;;-3.93;78.07;99891.30;1758544;81;25787;-69
2021/12/09 07:48:26;;;;;;;25.77;13.08;;;;;;;-3.91;78.20;99889.23;1733158;81;25574;-69
2021/12/09 07:50:52;;;;;;;27.32;12.90;;;;;;;-3.88;78.33;99890.11;1732894;81;27207;-69
2021/12/09 07:53:20;;;;;;;26.07;12.82;;;;;;;-3.82;78.39;99893.17;1758298;81;25636;-69
2021/12/09 07:55:47;;;;;;;27.67;13.35;;;;;;;-3.80;78.18;99894.27;1758649;81;25404;-69
2021/12/09 07:58:13;;;;;;;26.45;13.22;;;;;;;-3.77;78.41;99888.02;1758676;81;27721;-69
2021/12/09 08:00:40;;;;;;;27.77;13.75;;;;;;;-3.73;78.29;99886.25;1758771;81;25378;-69
2021/12/09 08:03:08;;;;;;;26.40;12.68;;;;;;;-3.69;78.46;99894.84;1758505;81;27324;-69
2021/12/09 08:05:45;;;;;;;27.95;14.13;;;;;;;-3.65;78.35;99897.31;1758724;81;25503;-69
2021/12/09 08:08:12;;;;;;;30.75;13.62;;;;;;;-3.64;78.18;99898.14;1758564;81;25605;-69
2021/12/09 08:10:39;;;;;;;29.05;14.05;;;;;;;-3.62;78.18;99892.91;1758728;81;26074;-69
2021/12/09 08:13:09;;;;;;;29.12;14.47;;;;;;;-3.62;78.13;99897.39;1758730;81;25674;-69
2021/12/09 08:15:39;;;;;;;27.00;13.38;;;;;;;-3.62;78.17;99896.87;1733114;81;27413;-70
2021/12/09 08:20:50;;;;;;;32.38;15.35;;;;;;;-3.55;78.55;99893.34;1758472;81;25724;-69
2021/12/09 08:23:17;;;;;;;29.35;14.13;;;;;;;-3.46;78.60;99898.58;1758666;81;26489;-69
2021/12/09 08:25:46;;;;;;;38.60;16.35;;;;;;;-3.41;78.55;99900.83;1758750;81;25696;-70
2021/12/09 08:28:13;;;;;;;29.27;14.45;;;;;;;-3.33;78.48;99906.84;1758709;81;27881;-70
2021/12/09 08:30:41;;;;;;;30.25;15.28;;;;;;;-3.32;78.32;99901.83;1758527;81;25448;-70
2021/12/09 08:33:08;;;;;;;29.35;14.38;;;;;;;-3.26;78.35;99907.55;1758610;81;25544;-69
2021/12/09 08:35:37;;;;;;;28.10;14.80;;;;;;;-3.25;78.15;99900.71;1758716;81;26294;-69
2021/12/09 08:38:06;;;;;;;30.60;14.40;;;;;;;-3.22;78.15;99907.38;1758486;81;25707;-70
2021/12/09 08:40:35;;;;;;;30.20;14.58;;;;;;;-3.25;77.99;99899.39;1758674;81;27322;-70
2021/12/09 08:43:03;;;;;;;32.78;14.53;;;;;;;-3.25;78.01;99888.80;1758758;81;26145;-70
2021/12/09 08:45:31;;;;;;;28.92;13.55;;;;;;;-3.23;78.12;99895.20;1758526;81;25638;-70
2021/12/09 08:47:59;;;;;;;27.87;14.13;;;;;;;-3.20;78.30;99896.87;1758591;81;25700;-70
2021/12/09 08:50:33;;;;;;;28.40;13.22;;;;;;;-3.21;78.26;99889.95;1758751;81;25701;-70
2021/12/09 08:52:58;;;;;;;26.05;12.93;;;;;;;-3.16;78.25;99895.89;1758088;81;28067;-70
2021/12/09 08:55:24;;;;;;;29.07;14.33;;;;;;;-3.21;77.96;99909.00;1758675;81;25392;-70
2021/12/09 08:57:52;;;;;;;25.12;12.30;;;;;;;-3.23;78.15;99921.12;1758622;81;25675;-70
2021/12/09 09:00:19;;;;;;;29.80;15.88;;;;;;;-3.21;78.28;99923.02;1758614;81;25694;-70
2021/12/09 09:02:50;;;;;;;25.37;13.68;;;;;;;-3.19;78.34;99914.86;1758703;81;25646;-70
2021/12/09 09:05:17;;;;;;;30.05;14.90;;;;;;;-3.18;78.41;99917.81;1758281;81;27381;-69
2021/12/09 09:07:49;;;;;;;29.00;15.48;;;;;;;-3.14;78.55;99912.34;1758503;81;25699;-70
2021/12/09 09:10:20;;;;;;;29.42;14.25;;;;;;;-3.09;78.77;99916.43;1758669;81;25457;-69
2021/12/09 09:12:47;;;;;;;26.68;13.30;;;;;;;-3.04;78.80;99905.97;1758592;81;25681;-70
2021/12/09 09:15:17;;;;;;;26.85;13.35;;;;;;;-2.99;78.63;99912.44;1758585;81;25677;-69
2021/12/09 09:17:44;;;;;;;;;;;;;;;-2.99;78.64;99907.14;1761313;81;27962;-69
2021/12/09 09:20:15;;;;;;;22.07;11.65;;;;;;;-2.99;78.50;99907.94;1758536;81;25846;-69
2021/12/09 09:22:42;;;;;;;25.57;13.08;;;;;;;-3.02;78.60;99901.25;1758534;81;25654;-70
2021/12/09 09:25:17;;;;;;;27.55;14.30;;;;;;;-3.02;78.54;99899.92;1733147;81;25637;-69
2021/12/09 09:27:41;;;;;;;27.67;15.13;;;;;;;-2.96;78.66;99898.72;1758400;81;25913;-69
2021/12/09 09:30:14;;;;;;;27.52;14.53;;;;;;;-2.95;78.48;99899.02;1758502;81;29545;-69
2021/12/09 09:32:42;;;;;;;36.08;17.52;;;;;;;-2.95;78.53;99894.52;1757820;81;25821;-69
2021/12/09 09:35:10;;;;;;;27.62;15.68;;;;;;;-2.92;78.79;99902.53;1758633;81;25562;-69
2021/12/09 09:37:37;;;;;;;27.40;13.88;;;;;;;-2.88;78.87;99893.09;1758503;81;26192;-69
2021/12/09 09:40:12;;;;;;;32.38;15.23;;;;;;;-2.85;78.78;99892.64;1758638;81;25673;-70
2021/12/09 09:45:14;;;;;;;28.45;15.28;;;;;;;-2.94;78.54;99890.85;1758316;81;25607;-70
2021/12/09 09:47:41;;;;;;;24.40;13.32;;;;;;;-2.95;78.73;99895.05;1760213;81;25529;-70
2021/12/09 09:50:10;;;;;;;25.62;14.83;;;;;;;-3.03;78.87;99895.69;1760166;81;26410;-70
2021/12/09 09:52:39;;;;;;;28.25;15.10;;;;;;;-3.07;79.14;99894.51;1760253;81;26324;-70
2021/12/09 09:55:10;;;;;;;27.27;13.98;;;;;;;-3.13;79.11;99897.26;1730276;81;28107;-70
2021/12/09 09:57:37;;;;;;;30.43;15.20;;;;;;;-3.11;79.43;99886.75;1760213;81;25363;-70
2021/12/09 10:00:09;;;;;;;26.95;13.32;;;;;;;-3.08;79.63;99904.82;1760095;81;25709;-70
2021/12/09 10:02:38;;;;;;;27.07;15.18;;;;;;;-3.08;79.70;99894.73;1760245;81;26318;-70
2021/12/09 10:05:08;;;;;;;26.15;14.00;;;;;;;-3.07;79.78;99885.77;1755762;81;25415;-70
2021/12/09 10:07:36;;;;;;;26.62;13.90;;;;;;;-3.05;79.92;99887.67;1760475;81;27301;-70
2021/12/09 10:10:07;;;;;;;28.38;13.25;;;;;;;-3.03;79.95;99887.75;1760094;81;25693;-68
2021/12/09 10:12:33;;;;;;;28.17;13.10;;;;;;;-3.04;80.12;99883.47;1760287;81;25679;-69
2021/12/09 10:15:00;;;;;;;26.27;14.60;;;;;;;-2.99;80.23;99882.00;1760013;81;25689;-69
2021/12/09 10:17:29;;;;;;;28.75;13.75;;;;;;;-2.99;80.37;99880.15;1734833;80;25543;-69
2021/12/09 10:20:05;;;;;;;28.95;14.85;;;;;;;-2.97;80.57;99866.16;1778747;80;27367;-69
2021/12/09 10:22:36;;;;;;;40.10;18.42;;;;;;;-2.98;80.64;99854.48;1778594;79;25734;-69
2021/12/09 10:25:17;;;;;;;30.43;14.83;;;;;;;-2.97;80.63;99850.28;1778745;80;25382;-70
2021/12/09 10:27:45;;;;;;;29.32;14.78;;;;;;;-2.95;80.75;99832.86;1723443;80;25550;-69
2021/12/09 10:30:19;;;;;;;26.27;14.05;;;;;;;-2.87;81.08;99831.19;1778680;80;25627;-70
2021/12/09 10:32:46;;;;;;;26.10;13.48;;;;;;;-2.86;80.88;99828.81;1778435;80;28163;-69
2021/12/09 10:35:20;;;;;;;26.25;14.50;;;;;;;-2.89;80.74;99827.45;1778614;80;25682;-70
2021/12/09 10:37:50;;;;;;;32.35;15.18;;;;;;;-2.87;80.95;99830.66;1778625;80;25618;-69
2021/12/09 10:40:27;;;;;;;33.38;15.25;;;;;;;-2.81;81.20;99835.53;1778755;80;25606;-70
2021/12/09 10:42:57;;;;;;;26.77;15.15;;;;;;;-2.78;81.26;99830.31;1778738;80;25405;-68
2021/12/09 10:45:31;;;;;;;26.50;14.70;;;;;;;-2.73;81.51;99829.09;1778666;79;26983;-70
2021/12/09 10:48:32;;;;;;;26.20;13.60;;;;;;;-2.75;81.15;99816.09;1778549;80;25489;-70
2021/12/09 10:51:12;;;;;;;31.48;12.68;;;;;;;-2.77;81.20;99810.75;1731371;81;25584;-69
2021/12/09 10:55:58;;;;;;;26.15;14.35;;;;;;;-2.77;81.41;99804.14;1730747;82;25752;-68
2021/12/09 10:58:30;;;;;;;30.05;13.58;;;;;;;-2.77;81.32;99816.05;1729991;82;27527;-68
2021/12/09 11:01:01;;;;;;;31.93;13.93;;;;;;;-2.78;81.16;99819.72;1730259;82;25975;-69
2021/12/09 11:03:42;;;;;;;29.15;13.90;;;;;;;-2.79;81.31;99828.19;1730787;82;25430;-69
2021/12/09 11:06:13;;;;;;;29.85;14.28;;;;;;;-2.80;81.37;99831.86;1730634;82;25592;-69
2021/12/09 11:08:53;;;;;;;27.35;13.53;;;;;;;-2.81;81.61;99826.27;1730765;82;25475;-69
2021/12/09 11:11:31;;;;;;;30.23;14.10;;;;;;;-2.82;81.41;99841.36;1730800;82;27490;-69
2021/12/09 11:14:05;;;;;;;28.65;13.72;;;;;;;-2.83;81.54;99835.80;1730427;82;25665;-69
2021/12/09 11:16:37;;;;;;;29.25;14.50;;;;;;;-2.80;81.52;99847.75;1730926;82;25640;-69
2021/12/09 11:19:10;;;;;;;30.23;14.75;;;;;;;-2.78;81.67;99838.25;1730848;82;25803;-70
2021/12/09 11:21:43;;;;;;;31.17;16.05;;;;;;;-2.82;81.62;99828.65;1730891;82;25716;-69
2021/12/09 11:24:15;;;;;;;34.83;17.65;;;;;;;-2.83;81.63;99830.50;1729574;82;29481;-69
2021/12/09 11:27:00;;;;;;;29.70;16.07;;;;;;;-2.80;81.73;99824.45;1730405;82;25685;-68
2021/12/09 11:29:49;;;;;;;30.85;16.02;;;;;;;-2.77;81.97;99816.05;1730930;82;25808;-69
2021/12/09 11:32:41;;;;;;;30.77;15.30;;;;;;;-2.73;82.09;99810.03;1730615;82;25673;-69
2021/12/09 11:35:24;;;;;;;31.33;16.42;;;;;;;-2.68;82.05;99807.50;1729845;82;25457;-70
2021/12/09 11:38:20;;;;;;;31.55;14.95;;;;;;;-2.65;82.25;99801.73;1730370;82;27980;-69